sensor_id;sensor_type;location;lat;lon;timestamp;P1;durP1;ratioP1;P2;durP2;ratioP2
10902;SDS011;5504;47.312;11.060;2022-09-03T00:05:07;3.77;;;2.70;;
10902;SDS011;5504;47.312;11.060;2022-09-03T00:13:58;3.93;;;2.73;;
10902;SDS011;5504;47.312;11.060;2022-09-03T00:16:33;3.83;;;2.47;;
10902;SDS011;5504;47.312;11.060;2022-09-03T00:19:17;3.63;;;2.63;;
10902;SDS011;5504;47.312;11.060;2022-09-03T00:24:43;2.70;;;2.50;;
10902;SDS011;5504;47.312;11.060;2022-09-03T00:27:16;3.47;;;2.63;;
10902;SDS011;5504;47.312;11.060;2022-09-03T00:29:51;2.83;;;2.63;;
10902;SDS011;5504;47.312;11.060;2022-09-03T00:32:25;3.00;;;2.70;;
10902;SDS011;5504;47.312;11.060;2022-09-03T00:34:59;2.90;;;2.70;;
10902;SDS011;5504;47.312;11.060;2022-09-03T00:37:28;3.20;;;3.00;;
10902;SDS011;5504;47.312;11.060;2022-09-03T00:39:54;2.90;;;2.63;;
10902;SDS011;5504;47.312;11.060;2022-09-03T00:53:39;3.30;;;3.00;;
10902;SDS011;5504;47.312;11.060;2022-09-03T00:56:21;4.10;;;2.93;;
10902;SDS011;5504;47.312;11.060;2022-09-03T01:07:16;4.87;;;3.53;;
10902;SDS011;5504;47.312;11.060;2022-09-03T01:12:38;4.03;;;3.30;;
10902;SDS011;5504;47.312;11.060;2022-09-03T01:20:42;3.83;;;3.53;;
10902;SDS011;5504;47.312;11.060;2022-09-03T01:36:58;4.83;;;3.63;;
10902;SDS011;5504;47.312;11.060;2022-09-03T01:53:06;3.57;;;3.27;;
10902;SDS011;5504;47.312;11.060;2022-09-03T01:56:06;4.10;;;3.70;;
10902;SDS011;5504;47.312;11.060;2022-09-03T02:01:04;4.47;;;3.50;;
10902;SDS011;5504;47.312;11.060;2022-09-03T02:03:53;3.80;;;3.40;;
10902;SDS011;5504;47.312;11.060;2022-09-03T02:06:24;5.00;;;3.40;;
10902;SDS011;5504;47.312;11.060;2022-09-03T02:08:51;3.70;;;3.30;;
10902;SDS011;5504;47.312;11.060;2022-09-03T02:11:17;3.60;;;3.30;;
10902;SDS011;5504;47.312;11.060;2022-09-03T02:13:48;3.17;;;2.87;;
10902;SDS011;5504;47.312;11.060;2022-09-03T02:16:18;4.37;;;2.80;;
10902;SDS011;5504;47.312;11.060;2022-09-03T02:19:05;3.37;;;3.07;;
10902;SDS011;5504;47.312;11.060;2022-09-03T02:21:36;4.17;;;3.50;;
10902;SDS011;5504;47.312;11.060;2022-09-03T02:24:04;3.53;;;3.20;;
10902;SDS011;5504;47.312;11.060;2022-09-03T02:26:32;3.10;;;2.90;;
10902;SDS011;5504;47.312;11.060;2022-09-03T02:28:58;3.20;;;3.00;;
10902;SDS011;5504;47.312;11.060;2022-09-03T02:31:26;3.57;;;3.20;;
10902;SDS011;5504;47.312;11.060;2022-09-03T02:33:52;4.37;;;3.53;;
10902;SDS011;5504;47.312;11.060;2022-09-03T02:36:20;5.27;;;3.20;;
10902;SDS011;5504;47.312;11.060;2022-09-03T02:38:51;3.93;;;3.17;;
10902;SDS011;5504;47.312;11.060;2022-09-03T02:41:17;3.50;;;3.20;;
10902;SDS011;5504;47.312;11.060;2022-09-03T02:43:50;4.73;;;3.40;;
10902;SDS011;5504;47.312;11.060;2022-09-03T02:46:24;3.33;;;3.10;;
10902;SDS011;5504;47.312;11.060;2022-09-03T02:49:01;3.33;;;3.03;;
10902;SDS011;5504;47.312;11.060;2022-09-03T02:51:30;3.50;;;3.20;;
10902;SDS011;5504;47.312;11.060;2022-09-03T02:54:00;3.10;;;2.90;;
10902;SDS011;5504;47.312;11.060;2022-09-03T02:56:26;3.80;;;3.50;;
10902;SDS011;5504;47.312;11.060;2022-09-03T02:58:52;3.53;;;3.23;;
10902;SDS011;5504;47.312;11.060;2022-09-03T03:01:19;3.83;;;3.20;;
10902;SDS011;5504;47.312;11.060;2022-09-03T03:03:44;3.60;;;3.00;;
10902;SDS011;5504;47.312;11.060;2022-09-03T03:06:10;3.93;;;3.40;;
10902;SDS011;5504;47.312;11.060;2022-09-03T03:08:38;3.67;;;3.03;;
10902;SDS011;5504;47.312;11.060;2022-09-03T03:11:04;3.13;;;2.93;;
10902;SDS011;5504;47.312;11.060;2022-09-03T03:13:31;3.30;;;3.00;;
10902;SDS011;5504;47.312;11.060;2022-09-03T03:15:57;3.83;;;3.43;;
10902;SDS011;5504;47.312;11.060;2022-09-03T03:18:25;4.30;;;3.87;;
10902;SDS011;5504;47.312;11.060;2022-09-03T03:20:50;4.33;;;3.90;;
10902;SDS011;5504;47.312;11.060;2022-09-03T03:23:16;4.20;;;3.80;;
10902;SDS011;5504;47.312;11.060;2022-09-03T03:25:42;4.77;;;4.13;;
10902;SDS011;5504;47.312;11.060;2022-09-03T03:28:08;4.33;;;3.93;;
10902;SDS011;5504;47.312;11.060;2022-09-03T03:30:35;4.57;;;4.17;;
10902;SDS011;5504;47.312;11.060;2022-09-03T03:33:03;4.10;;;3.70;;
10902;SDS011;5504;47.312;11.060;2022-09-03T03:35:34;4.60;;;3.93;;
10902;SDS011;5504;47.312;11.060;2022-09-03T03:38:00;4.67;;;3.73;;
10902;SDS011;5504;47.312;11.060;2022-09-03T03:40:26;3.93;;;3.60;;
10902;SDS011;5504;47.312;11.060;2022-09-03T03:42:51;3.67;;;3.37;;
10902;SDS011;5504;47.312;11.060;2022-09-03T03:45:18;5.50;;;3.73;;
10902;SDS011;5504;47.312;11.060;2022-09-03T03:47:44;4.10;;;3.53;;
10902;SDS011;5504;47.312;11.060;2022-09-03T03:50:10;3.70;;;3.40;;
10902;SDS011;5504;47.312;11.060;2022-09-03T03:52:35;4.23;;;3.80;;
10902;SDS011;5504;47.312;11.060;2022-09-03T03:55:01;4.00;;;3.30;;
10902;SDS011;5504;47.312;11.060;2022-09-03T03:57:29;3.80;;;3.50;;
10902;SDS011;5504;47.312;11.060;2022-09-03T03:59:56;3.80;;;3.50;;
10902;SDS011;5504;47.312;11.060;2022-09-03T04:02:22;4.20;;;3.80;;
10902;SDS011;5504;47.312;11.060;2022-09-03T04:04:47;3.37;;;3.07;;
10902;SDS011;5504;47.312;11.060;2022-09-03T04:07:13;3.63;;;3.33;;
10902;SDS011;5504;47.312;11.060;2022-09-03T04:09:39;5.20;;;3.27;;
10902;SDS011;5504;47.312;11.060;2022-09-03T04:12:04;3.97;;;3.20;;
10902;SDS011;5504;47.312;11.060;2022-09-03T04:14:32;4.10;;;3.80;;
10902;SDS011;5504;47.312;11.060;2022-09-03T04:17:02;4.03;;;3.43;;
10902;SDS011;5504;47.312;11.060;2022-09-03T04:19:28;3.80;;;3.50;;
10902;SDS011;5504;47.312;11.060;2022-09-03T04:21:54;3.80;;;3.40;;
10902;SDS011;5504;47.312;11.060;2022-09-03T04:24:20;3.60;;;3.30;;
10902;SDS011;5504;47.312;11.060;2022-09-03T04:26:46;3.50;;;3.20;;
10902;SDS011;5504;47.312;11.060;2022-09-03T04:29:14;3.57;;;3.10;;
10902;SDS011;5504;47.312;11.060;2022-09-03T04:31:40;4.43;;;3.10;;
10902;SDS011;5504;47.312;11.060;2022-09-03T04:34:25;3.30;;;3.00;;
10902;SDS011;5504;47.312;11.060;2022-09-03T04:36:51;3.57;;;3.27;;
10902;SDS011;5504;47.312;11.060;2022-09-03T04:39:18;3.53;;;3.23;;
10902;SDS011;5504;47.312;11.060;2022-09-03T04:41:44;3.80;;;2.90;;
10902;SDS011;5504;47.312;11.060;2022-09-03T04:44:09;3.13;;;2.83;;
10902;SDS011;5504;47.312;11.060;2022-09-03T04:46:36;3.40;;;3.10;;
10902;SDS011;5504;47.312;11.060;2022-09-03T04:49:01;3.60;;;3.00;;
10902;SDS011;5504;47.312;11.060;2022-09-03T04:51:27;4.37;;;3.20;;
10902;SDS011;5504;47.312;11.060;2022-09-03T04:54:00;3.40;;;3.10;;
10902;SDS011;5504;47.312;11.060;2022-09-03T04:56:30;3.40;;;3.10;;
10902;SDS011;5504;47.312;11.060;2022-09-03T04:59:01;3.23;;;2.93;;
10902;SDS011;5504;47.312;11.060;2022-09-03T05:01:33;3.03;;;2.77;;
10902;SDS011;5504;47.312;11.060;2022-09-03T05:04:00;3.20;;;2.90;;
10902;SDS011;5504;47.312;11.060;2022-09-03T05:06:27;3.17;;;2.93;;
10902;SDS011;5504;47.312;11.060;2022-09-03T05:08:54;3.37;;;3.07;;
10902;SDS011;5504;47.312;11.060;2022-09-03T05:11:21;3.50;;;3.20;;
10902;SDS011;5504;47.312;11.060;2022-09-03T05:13:51;3.50;;;3.03;;
10902;SDS011;5504;47.312;11.060;2022-09-03T05:16:19;3.77;;;3.37;;
10902;SDS011;5504;47.312;11.060;2022-09-03T05:18:45;4.27;;;3.40;;
10902;SDS011;5504;47.312;11.060;2022-09-03T05:21:12;3.83;;;3.07;;
10902;SDS011;5504;47.312;11.060;2022-09-03T05:23:40;3.73;;;3.20;;
10902;SDS011;5504;47.312;11.060;2022-09-03T05:26:09;3.37;;;3.07;;
10902;SDS011;5504;47.312;11.060;2022-09-03T05:28:38;3.63;;;2.97;;
10902;SDS011;5504;47.312;11.060;2022-09-03T05:33:35;3.97;;;3.00;;
10902;SDS011;5504;47.312;11.060;2022-09-03T05:36:05;3.53;;;3.23;;
10902;SDS011;5504;47.312;11.060;2022-09-03T05:38:32;4.50;;;3.00;;
10902;SDS011;5504;47.312;11.060;2022-09-03T05:40:59;3.53;;;3.20;;
10902;SDS011;5504;47.312;11.060;2022-09-03T05:43:26;3.53;;;3.20;;
10902;SDS011;5504;47.312;11.060;2022-09-03T05:45:56;3.47;;;3.00;;
10902;SDS011;5504;47.312;11.060;2022-09-03T05:48:24;3.57;;;3.13;;
10902;SDS011;5504;47.312;11.060;2022-09-03T05:50:57;2.93;;;2.73;;
10902;SDS011;5504;47.312;11.060;2022-09-03T05:53:32;3.50;;;3.20;;
10902;SDS011;5504;47.312;11.060;2022-09-03T05:56:00;4.50;;;2.80;;
10902;SDS011;5504;47.312;11.060;2022-09-03T05:58:35;3.13;;;2.90;;
10902;SDS011;5504;47.312;11.060;2022-09-03T06:03:43;3.03;;;2.73;;
10902;SDS011;5504;47.312;11.060;2022-09-03T06:06:11;2.70;;;2.50;;
10902;SDS011;5504;47.312;11.060;2022-09-03T06:08:40;2.93;;;2.63;;
10902;SDS011;5504;47.312;11.060;2022-09-03T06:11:08;3.37;;;2.57;;
10902;SDS011;5504;47.312;11.060;2022-09-03T06:13:35;2.50;;;2.30;;
10902;SDS011;5504;47.312;11.060;2022-09-03T06:16:02;2.43;;;2.23;;
10902;SDS011;5504;47.312;11.060;2022-09-03T06:18:29;2.50;;;2.30;;
10902;SDS011;5504;47.312;11.060;2022-09-03T06:21:03;2.40;;;2.20;;
10902;SDS011;5504;47.312;11.060;2022-09-03T06:23:31;2.33;;;2.13;;
10902;SDS011;5504;47.312;11.060;2022-09-03T06:26:10;3.03;;;2.30;;
10902;SDS011;5504;47.312;11.060;2022-09-03T06:28:38;2.53;;;2.20;;
10902;SDS011;5504;47.312;11.060;2022-09-03T06:31:07;2.80;;;2.00;;
10902;SDS011;5504;47.312;11.060;2022-09-03T06:33:35;3.07;;;1.90;;
10902;SDS011;5504;47.312;11.060;2022-09-03T06:36:03;3.70;;;2.20;;
10902;SDS011;5504;47.312;11.060;2022-09-03T06:38:31;2.30;;;2.10;;
10902;SDS011;5504;47.312;11.060;2022-09-03T06:41:02;2.63;;;2.20;;
10902;SDS011;5504;47.312;11.060;2022-09-03T06:43:30;2.00;;;1.90;;
10902;SDS011;5504;47.312;11.060;2022-09-03T06:46:05;3.30;;;1.90;;
10902;SDS011;5504;47.312;11.060;2022-09-03T06:48:36;2.80;;;2.20;;
10902;SDS011;5504;47.312;11.060;2022-09-03T06:51:04;2.40;;;2.20;;
10902;SDS011;5504;47.312;11.060;2022-09-03T06:53:32;2.33;;;2.03;;
10902;SDS011;5504;47.312;11.060;2022-09-03T06:56:03;2.23;;;2.03;;
10902;SDS011;5504;47.312;11.060;2022-09-03T06:58:40;2.40;;;2.20;;
10902;SDS011;5504;47.312;11.060;2022-09-03T07:01:12;2.23;;;1.97;;
10902;SDS011;5504;47.312;11.060;2022-09-03T07:03:40;2.10;;;2.00;;
10902;SDS011;5504;47.312;11.060;2022-09-03T07:06:11;2.10;;;2.00;;
10902;SDS011;5504;47.312;11.060;2022-09-03T07:08:41;2.22;;;2.00;;
10902;SDS011;5504;47.312;11.060;2022-09-03T07:11:08;2.47;;;2.28;;
10902;SDS011;5504;47.312;11.060;2022-09-03T07:13:39;2.58;;;2.38;;
10902;SDS011;5504;47.312;11.060;2022-09-03T07:18:37;2.10;;;1.88;;
10902;SDS011;5504;47.312;11.060;2022-09-03T07:21:05;2.20;;;2.00;;
10902;SDS011;5504;47.312;11.060;2022-09-03T07:23:33;2.00;;;1.80;;
10902;SDS011;5504;47.312;11.060;2022-09-03T07:26:00;2.47;;;2.28;;
10902;SDS011;5504;47.312;11.060;2022-09-03T07:28:29;2.10;;;1.90;;
10902;SDS011;5504;47.312;11.060;2022-09-03T07:31:00;1.98;;;1.70;;
10902;SDS011;5504;47.312;11.060;2022-09-03T07:33:45;2.30;;;1.50;;
10902;SDS011;5504;47.312;11.060;2022-09-03T07:36:13;2.92;;;1.60;;
10902;SDS011;5504;47.312;11.060;2022-09-03T07:38:40;1.88;;;1.63;;
10902;SDS011;5504;47.312;11.060;2022-09-03T07:41:09;2.33;;;1.70;;
10902;SDS011;5504;47.312;11.060;2022-09-03T07:43:36;1.77;;;1.55;;
10902;SDS011;5504;47.312;11.060;2022-09-03T07:46:16;1.80;;;1.70;;
10902;SDS011;5504;47.312;11.060;2022-09-03T07:48:47;2.47;;;1.70;;
10902;SDS011;5504;47.312;11.060;2022-09-03T07:51:18;1.98;;;1.65;;
10902;SDS011;5504;47.312;11.060;2022-09-03T07:53:46;2.72;;;1.75;;
10902;SDS011;5504;47.312;11.060;2022-09-03T07:56:12;2.22;;;1.60;;
10902;SDS011;5504;47.312;11.060;2022-09-03T07:58:39;1.67;;;1.50;;
10902;SDS011;5504;47.312;11.060;2022-09-03T08:01:25;2.00;;;1.50;;
10902;SDS011;5504;47.312;11.060;2022-09-03T08:03:58;1.67;;;1.55;;
10902;SDS011;5504;47.312;11.060;2022-09-03T08:06:25;1.50;;;1.40;;
10902;SDS011;5504;47.312;11.060;2022-09-03T08:08:56;1.70;;;1.50;;
10902;SDS011;5504;47.312;11.060;2022-09-03T08:11:25;1.40;;;1.30;;
10902;SDS011;5504;47.312;11.060;2022-09-03T08:13:56;1.50;;;1.40;;
10902;SDS011;5504;47.312;11.060;2022-09-03T08:16:27;1.23;;;1.17;;
10902;SDS011;5504;47.312;11.060;2022-09-03T08:18:54;1.50;;;1.40;;
10902;SDS011;5504;47.312;11.060;2022-09-03T08:21:20;1.42;;;1.30;;
10902;SDS011;5504;47.312;11.060;2022-09-03T08:23:47;1.40;;;1.30;;
10902;SDS011;5504;47.312;11.060;2022-09-03T08:26:15;3.20;;;1.38;;
10902;SDS011;5504;47.312;11.060;2022-09-03T08:28:42;2.53;;;1.30;;
10902;SDS011;5504;47.312;11.060;2022-09-03T08:31:12;1.30;;;1.20;;
10902;SDS011;5504;47.312;11.060;2022-09-03T08:33:50;1.10;;;1.10;;
10902;SDS011;5504;47.312;11.060;2022-09-03T08:36:18;1.50;;;1.40;;
10902;SDS011;5504;47.312;11.060;2022-09-03T08:38:49;2.03;;;1.50;;
10902;SDS011;5504;47.312;11.060;2022-09-03T08:44:27;2.28;;;1.40;;
10902;SDS011;5504;47.312;11.060;2022-09-03T08:52:31;1.50;;;1.30;;
10902;SDS011;5504;47.312;11.060;2022-09-03T08:58:10;1.67;;;1.58;;
10902;SDS011;5504;47.312;11.060;2022-09-03T09:00:57;1.67;;;1.30;;
10902;SDS011;5504;47.312;11.060;2022-09-03T09:06:06;3.70;;;1.70;;
10902;SDS011;5504;47.312;11.060;2022-09-03T09:16:46;1.50;;;1.40;;
10902;SDS011;5504;47.312;11.060;2022-09-03T09:21:59;2.55;;;1.52;;
10902;SDS011;5504;47.312;11.060;2022-09-03T09:24:32;1.23;;;1.13;;
10902;SDS011;5504;47.312;11.060;2022-09-03T09:27:04;1.30;;;1.20;;
10902;SDS011;5504;47.312;11.060;2022-09-03T09:29:31;4.18;;;1.30;;
10902;SDS011;5504;47.312;11.060;2022-09-03T09:32:00;1.30;;;1.20;;
10902;SDS011;5504;47.312;11.060;2022-09-03T09:34:32;1.30;;;1.20;;
10902;SDS011;5504;47.312;11.060;2022-09-03T09:37:00;1.48;;;1.23;;
10902;SDS011;5504;47.312;11.060;2022-09-03T09:39:30;1.83;;;1.10;;
10902;SDS011;5504;47.312;11.060;2022-09-03T09:41:59;1.60;;;1.50;;
10902;SDS011;5504;47.312;11.060;2022-09-03T09:44:30;1.52;;;1.42;;
10902;SDS011;5504;47.312;11.060;2022-09-03T09:47:03;1.85;;;1.30;;
10902;SDS011;5504;47.312;11.060;2022-09-03T09:49:33;1.73;;;1.30;;
10902;SDS011;5504;47.312;11.060;2022-09-03T09:52:05;1.10;;;1.10;;
10902;SDS011;5504;47.312;11.060;2022-09-03T09:54:35;2.35;;;1.40;;
10902;SDS011;5504;47.312;11.060;2022-09-03T09:57:03;1.33;;;1.30;;
10902;SDS011;5504;47.312;11.060;2022-09-03T09:59:30;2.63;;;1.52;;
10902;SDS011;5504;47.312;11.060;2022-09-03T10:02:11;1.30;;;1.20;;
10902;SDS011;5504;47.312;11.060;2022-09-03T10:04:44;1.95;;;1.45;;
10902;SDS011;5504;47.312;11.060;2022-09-03T10:07:27;1.52;;;1.42;;
10902;SDS011;5504;47.312;11.060;2022-09-03T10:09:59;2.53;;;1.85;;
10902;SDS011;5504;47.312;11.060;2022-09-03T10:12:47;1.88;;;1.40;;
10902;SDS011;5504;47.312;11.060;2022-09-03T10:15:44;1.40;;;1.30;;
10902;SDS011;5504;47.312;11.060;2022-09-03T10:21:14;2.13;;;1.40;;
10902;SDS011;5504;47.312;11.060;2022-09-03T10:26:13;1.73;;;1.45;;
10902;SDS011;5504;47.312;11.060;2022-09-03T10:28:43;2.45;;;1.52;;
10902;SDS011;5504;47.312;11.060;2022-09-03T10:45:15;1.92;;;1.42;;
10902;SDS011;5504;47.312;11.060;2022-09-03T10:50:45;1.40;;;1.30;;
10902;SDS011;5504;47.312;11.060;2022-09-03T10:56:06;1.40;;;1.30;;
10902;SDS011;5504;47.312;11.060;2022-09-03T11:06:34;1.35;;;1.25;;
10902;SDS011;5504;47.312;11.060;2022-09-03T11:09:28;2.58;;;1.30;;
10902;SDS011;5504;47.312;11.060;2022-09-03T11:12:37;1.45;;;1.10;;
10902;SDS011;5504;47.312;11.060;2022-09-03T11:17:33;1.33;;;1.23;;
10902;SDS011;5504;47.312;11.060;2022-09-03T11:23:04;1.40;;;1.30;;
10902;SDS011;5504;47.312;11.060;2022-09-03T11:25:35;1.52;;;1.42;;
10902;SDS011;5504;47.312;11.060;2022-09-03T11:33:39;2.30;;;1.55;;
10902;SDS011;5504;47.312;11.060;2022-09-03T11:36:09;1.80;;;1.70;;
10902;SDS011;5504;47.312;11.060;2022-09-03T11:38:35;1.85;;;1.25;;
10902;SDS011;5504;47.312;11.060;2022-09-03T11:43:51;2.17;;;1.58;;
10902;SDS011;5504;47.312;11.060;2022-09-03T11:48:48;1.92;;;1.83;;
10902;SDS011;5504;47.312;11.060;2022-09-03T11:51:19;1.60;;;1.50;;
10902;SDS011;5504;47.312;11.060;2022-09-03T11:54:22;1.83;;;1.60;;
10902;SDS011;5504;47.312;11.060;2022-09-03T11:56:50;1.92;;;1.60;;
10902;SDS011;5504;47.312;11.060;2022-09-03T11:59:28;1.95;;;1.55;;
10902;SDS011;5504;47.312;11.060;2022-09-03T12:02:01;1.75;;;1.50;;
10902;SDS011;5504;47.312;11.060;2022-09-03T12:04:43;2.67;;;1.60;;
10902;SDS011;5504;47.312;11.060;2022-09-03T12:10:26;2.45;;;1.60;;
10902;SDS011;5504;47.312;11.060;2022-09-03T12:18:32;2.13;;;1.90;;
10902;SDS011;5504;47.312;11.060;2022-09-03T12:21:02;4.68;;;1.83;;
10902;SDS011;5504;47.312;11.060;2022-09-03T12:23:31;2.00;;;1.90;;
10902;SDS011;5504;47.312;11.060;2022-09-03T12:26:10;1.65;;;1.50;;
10902;SDS011;5504;47.312;11.060;2022-09-03T12:28:47;1.50;;;1.40;;
10902;SDS011;5504;47.312;11.060;2022-09-03T12:33:55;2.45;;;1.70;;
10902;SDS011;5504;47.312;11.060;2022-09-03T12:36:44;1.75;;;1.48;;
10902;SDS011;5504;47.312;11.060;2022-09-03T12:39:22;1.65;;;1.50;;
10902;SDS011;5504;47.312;11.060;2022-09-03T12:41:54;1.92;;;1.70;;
10902;SDS011;5504;47.312;11.060;2022-09-03T12:44:36;2.47;;;2.00;;
10902;SDS011;5504;47.312;11.060;2022-09-03T12:49:39;2.08;;;1.90;;
10902;SDS011;5504;47.312;11.060;2022-09-03T12:52:09;1.75;;;1.65;;
10902;SDS011;5504;47.312;11.060;2022-09-03T13:00:23;2.58;;;1.88;;
10902;SDS011;5504;47.312;11.060;2022-09-03T13:05:21;3.08;;;1.67;;
10902;SDS011;5504;47.312;11.060;2022-09-03T13:07:58;1.83;;;1.60;;
10902;SDS011;5504;47.312;11.060;2022-09-03T13:10:44;1.80;;;1.70;;
10902;SDS011;5504;47.312;11.060;2022-09-03T13:18:57;1.80;;;1.70;;
10902;SDS011;5504;47.312;11.060;2022-09-03T13:35:08;1.90;;;1.80;;
10902;SDS011;5504;47.312;11.060;2022-09-03T13:40:35;1.90;;;1.80;;
10902;SDS011;5504;47.312;11.060;2022-09-03T13:48:35;2.15;;;1.98;;
10902;SDS011;5504;47.312;11.060;2022-09-03T13:56:55;2.25;;;2.10;;
10902;SDS011;5504;47.312;11.060;2022-09-03T14:05:01;1.75;;;1.65;;
10902;SDS011;5504;47.312;11.060;2022-09-03T14:27:00;2.30;;;2.10;;
10902;SDS011;5504;47.312;11.060;2022-09-03T14:29:31;2.38;;;2.17;;
10902;SDS011;5504;47.312;11.060;2022-09-03T14:43:12;2.10;;;2.00;;
10902;SDS011;5504;47.312;11.060;2022-09-03T14:49:11;2.03;;;1.80;;
10902;SDS011;5504;47.312;11.060;2022-09-03T14:51:47;2.00;;;1.90;;
10902;SDS011;5504;47.312;11.060;2022-09-03T15:00:17;1.70;;;1.60;;
10902;SDS011;5504;47.312;11.060;2022-09-03T15:05:48;1.50;;;1.40;;
10902;SDS011;5504;47.312;11.060;2022-09-03T15:11:16;1.70;;;1.60;;
10902;SDS011;5504;47.312;11.060;2022-09-03T15:14:05;1.88;;;1.77;;
10902;SDS011;5504;47.312;11.060;2022-09-03T15:16:58;2.05;;;1.63;;
10902;SDS011;5504;47.312;11.060;2022-09-03T15:19:56;1.85;;;1.75;;
10902;SDS011;5504;47.312;11.060;2022-09-03T15:22:43;1.63;;;1.52;;
10902;SDS011;5504;47.312;11.060;2022-09-03T15:25:21;1.60;;;1.50;;
10902;SDS011;5504;47.312;11.060;2022-09-03T15:36:22;1.80;;;1.70;;
10902;SDS011;5504;47.312;11.060;2022-09-03T15:41:32;1.70;;;1.60;;
10902;SDS011;5504;47.312;11.060;2022-09-03T15:44:06;1.70;;;1.60;;
10902;SDS011;5504;47.312;11.060;2022-09-03T15:46:40;1.80;;;1.70;;
10902;SDS011;5504;47.312;11.060;2022-09-03T15:55:06;2.55;;;1.60;;
10902;SDS011;5504;47.312;11.060;2022-09-03T16:03:12;1.85;;;1.73;;
10902;SDS011;5504;47.312;11.060;2022-09-03T16:16:10;1.42;;;1.20;;
10902;SDS011;5504;47.312;11.060;2022-09-03T16:18:52;2.25;;;1.08;;
10902;SDS011;5504;47.312;11.060;2022-09-03T16:21:31;1.50;;;1.40;;
10902;SDS011;5504;47.312;11.060;2022-09-03T16:24:21;2.13;;;1.50;;
10902;SDS011;5504;47.312;11.060;2022-09-03T16:26:54;1.35;;;1.10;;
10902;SDS011;5504;47.312;11.060;2022-09-03T16:29:26;1.23;;;0.85;;
10902;SDS011;5504;47.312;11.060;2022-09-03T16:35:06;1.17;;;0.90;;
10902;SDS011;5504;47.312;11.060;2022-09-03T16:43:07;1.10;;;0.98;;
10902;SDS011;5504;47.312;11.060;2022-09-03T16:48:40;1.42;;;0.90;;
10902;SDS011;5504;47.312;11.060;2022-09-03T16:51:33;1.20;;;1.10;;
10902;SDS011;5504;47.312;11.060;2022-09-03T17:05:38;1.25;;;1.10;;
10902;SDS011;5504;47.312;11.060;2022-09-03T17:25:19;1.48;;;1.38;;
10902;SDS011;5504;47.312;11.060;2022-09-03T17:36:11;1.58;;;1.48;;
10902;SDS011;5504;47.312;11.060;2022-09-03T17:44:43;1.50;;;1.40;;
10902;SDS011;5504;47.312;11.060;2022-09-03T17:58:12;1.98;;;1.70;;
10902;SDS011;5504;47.312;11.060;2022-09-03T18:01:28;2.13;;;1.90;;
10902;SDS011;5504;47.312;11.060;2022-09-03T18:11:37;2.15;;;1.90;;
10902;SDS011;5504;47.312;11.060;2022-09-03T18:16:51;2.37;;;1.90;;
10902;SDS011;5504;47.312;11.060;2022-09-03T18:19:27;1.87;;;1.77;;
10902;SDS011;5504;47.312;11.060;2022-09-03T18:22:30;1.97;;;1.80;;
10902;SDS011;5504;47.312;11.060;2022-09-03T18:25:31;2.00;;;1.80;;
10902;SDS011;5504;47.312;11.060;2022-09-03T18:28:18;4.13;;;2.50;;
10902;SDS011;5504;47.312;11.060;2022-09-03T18:31:12;3.47;;;2.50;;
10902;SDS011;5504;47.312;11.060;2022-09-03T18:33:58;3.10;;;2.27;;
10902;SDS011;5504;47.312;11.060;2022-09-03T18:36:45;2.90;;;2.40;;
10902;SDS011;5504;47.312;11.060;2022-09-03T18:39:29;2.60;;;2.40;;
10902;SDS011;5504;47.312;11.060;2022-09-03T18:51:59;4.27;;;2.60;;
10902;SDS011;5504;47.312;11.060;2022-09-03T18:58:41;4.27;;;2.20;;
10902;SDS011;5504;47.312;11.060;2022-09-03T19:01:33;3.13;;;2.10;;
10902;SDS011;5504;47.312;11.060;2022-09-03T19:10:36;2.00;;;1.90;;
10902;SDS011;5504;47.312;11.060;2022-09-03T19:13:40;2.73;;;1.60;;
10902;SDS011;5504;47.312;11.060;2022-09-03T19:22:09;1.40;;;1.30;;
10902;SDS011;5504;47.312;11.060;2022-09-03T19:25:05;1.50;;;1.40;;
10902;SDS011;5504;47.312;11.060;2022-09-03T19:33:44;1.57;;;1.47;;
10902;SDS011;5504;47.312;11.060;2022-09-03T19:51:20;1.80;;;1.20;;
10902;SDS011;5504;47.312;11.060;2022-09-03T19:54:08;1.30;;;1.20;;
10902;SDS011;5504;47.312;11.060;2022-09-03T19:56:55;2.13;;;1.30;;
10902;SDS011;5504;47.312;11.060;2022-09-03T19:59:41;1.77;;;1.40;;
10902;SDS011;5504;47.312;11.060;2022-09-03T20:02:30;2.03;;;1.33;;
10902;SDS011;5504;47.312;11.060;2022-09-03T20:05:17;2.37;;;1.40;;
10902;SDS011;5504;47.312;11.060;2022-09-03T20:08:03;1.30;;;1.20;;
10902;SDS011;5504;47.312;11.060;2022-09-03T20:10:51;1.53;;;1.10;;
10902;SDS011;5504;47.312;11.060;2022-09-03T20:13:20;1.33;;;1.23;;
10902;SDS011;5504;47.312;11.060;2022-09-03T20:36:56;5.47;;;1.37;;
10902;SDS011;5504;47.312;11.060;2022-09-03T20:45:30;1.83;;;1.27;;
10902;SDS011;5504;47.312;11.060;2022-09-03T20:48:11;1.53;;;1.40;;
10902;SDS011;5504;47.312;11.060;2022-09-03T20:53:44;3.00;;;1.30;;
10902;SDS011;5504;47.312;11.060;2022-09-03T20:59:13;1.50;;;1.40;;
10902;SDS011;5504;47.312;11.060;2022-09-03T21:01:57;1.63;;;1.53;;
10902;SDS011;5504;47.312;11.060;2022-09-03T21:12:35;1.60;;;1.33;;
10902;SDS011;5504;47.312;11.060;2022-09-03T21:20:35;1.77;;;1.20;;
10902;SDS011;5504;47.312;11.060;2022-09-03T21:26:06;2.73;;;1.53;;
10902;SDS011;5504;47.312;11.060;2022-09-03T21:28:38;1.90;;;1.30;;
10902;SDS011;5504;47.312;11.060;2022-09-03T21:31:14;1.50;;;1.40;;
10902;SDS011;5504;47.312;11.060;2022-09-03T21:33:47;2.40;;;1.30;;
10902;SDS011;5504;47.312;11.060;2022-09-03T21:36:29;1.77;;;1.63;;
10902;SDS011;5504;47.312;11.060;2022-09-03T21:39:06;1.57;;;1.47;;
10902;SDS011;5504;47.312;11.060;2022-09-03T21:41:45;1.70;;;1.20;;
10902;SDS011;5504;47.312;11.060;2022-09-03T21:44:23;1.70;;;1.57;;
10902;SDS011;5504;47.312;11.060;2022-09-03T21:47:11;1.47;;;1.37;;
10902;SDS011;5504;47.312;11.060;2022-09-03T21:52:57;1.53;;;1.20;;
10902;SDS011;5504;47.312;11.060;2022-09-03T21:58:48;2.27;;;1.40;;
10902;SDS011;5504;47.312;11.060;2022-09-03T22:01:23;1.77;;;1.53;;
10902;SDS011;5504;47.312;11.060;2022-09-03T22:04:11;1.60;;;1.30;;
10902;SDS011;5504;47.312;11.060;2022-09-03T22:09:10;2.17;;;1.57;;
10902;SDS011;5504;47.312;11.060;2022-09-03T22:11:57;2.63;;;1.60;;
10902;SDS011;5504;47.312;11.060;2022-09-03T22:14:24;2.53;;;1.37;;
10902;SDS011;5504;47.312;11.060;2022-09-03T22:17:05;2.63;;;1.70;;
10902;SDS011;5504;47.312;11.060;2022-09-03T22:19:42;2.33;;;1.40;;
10902;SDS011;5504;47.312;11.060;2022-09-03T22:22:23;1.60;;;1.50;;
10902;SDS011;5504;47.312;11.060;2022-09-03T22:25:12;3.17;;;1.60;;
10902;SDS011;5504;47.312;11.060;2022-09-03T22:30:52;2.17;;;1.50;;
10902;SDS011;5504;47.312;11.060;2022-09-03T22:33:31;1.77;;;1.60;;
10902;SDS011;5504;47.312;11.060;2022-09-03T22:36:12;3.00;;;1.60;;
10902;SDS011;5504;47.312;11.060;2022-09-03T22:49:43;2.27;;;1.50;;
10902;SDS011;5504;47.312;11.060;2022-09-03T22:57:33;1.90;;;1.80;;
10902;SDS011;5504;47.312;11.060;2022-09-03T23:00:06;2.03;;;1.83;;
10902;SDS011;5504;47.312;11.060;2022-09-03T23:02:33;3.60;;;1.80;;
10902;SDS011;5504;47.312;11.060;2022-09-03T23:05:06;3.07;;;2.13;;
10902;SDS011;5504;47.312;11.060;2022-09-03T23:08:19;2.37;;;2.17;;
10902;SDS011;5504;47.312;11.060;2022-09-03T23:13:44;2.10;;;1.90;;
10902;SDS011;5504;47.312;11.060;2022-09-03T23:18:44;3.57;;;2.03;;
10902;SDS011;5504;47.312;11.060;2022-09-03T23:23:49;2.63;;;2.43;;
10902;SDS011;5504;47.312;11.060;2022-09-03T23:26:34;2.17;;;1.97;;
10902;SDS011;5504;47.312;11.060;2022-09-03T23:29:16;3.47;;;1.87;;
10902;SDS011;5504;47.312;11.060;2022-09-03T23:32:03;2.03;;;1.60;;
10902;SDS011;5504;47.312;11.060;2022-09-03T23:34:29;1.70;;;1.60;;
10902;SDS011;5504;47.312;11.060;2022-09-03T23:45:29;2.67;;;1.90;;
10902;SDS011;5504;47.312;11.060;2022-09-03T23:54:22;1.63;;;1.53;;
